createdAt,value
2018-06-16T00:00:04.560Z,1009.8
2018-06-16T00:01:07.248Z,1009.8
2018-06-16T00:02:09.238Z,1009.8
2018-06-16T00:03:11.252Z,1009.8
2018-06-16T00:04:13.526Z,1009.8
2018-06-16T00:05:15.822Z,1009.8
2018-06-16T00:06:17.820Z,1009.8
2018-06-16T00:07:19.820Z,1009.8
2018-06-16T00:08:22.099Z,1009.8
2018-06-16T00:09:24.773Z,1009.8
2018-06-16T00:10:27.167Z,1009.8
2018-06-16T00:11:29.173Z,1009.8
2018-06-16T00:12:31.160Z,1009.8
2018-06-16T00:13:33.452Z,1009.8
2018-06-16T00:14:36.015Z,1009.8
2018-06-16T00:15:38.294Z,1009.8
2018-06-16T00:16:40.292Z,1009.8
2018-06-16T00:17:42.573Z,1009.8
2018-06-16T00:18:44.567Z,1009.8
2018-06-16T00:19:46.562Z,1009.8
2018-06-16T00:20:48.855Z,1009.8
2018-06-16T00:21:50.868Z,1009.9
2018-06-16T00:22:52.860Z,1009.8
2018-06-16T00:23:54.858Z,1009.8
2018-06-16T00:24:56.856Z,1009.8
2018-06-16T00:25:58.856Z,1009.8
2018-06-16T00:27:00.852Z,1009.8
2018-06-16T00:28:02.851Z,1009.8
2018-06-16T00:29:04.859Z,1009.8
2018-06-16T00:30:07.139Z,1009.9
2018-06-16T00:31:09.123Z,1009.8
2018-06-16T00:32:11.123Z,1009.9
2018-06-16T00:33:13.121Z,1009.8
2018-06-16T00:34:15.118Z,1009.8
2018-06-16T00:35:17.122Z,1009.8
2018-06-16T00:36:19.124Z,1009.8
2018-06-16T00:37:21.115Z,1009.8
2018-06-16T00:38:23.122Z,1009.8
2018-06-16T00:39:25.401Z,1009.8
2018-06-16T00:40:27.397Z,1009.8
2018-06-16T00:41:29.397Z,1009.8
2018-06-16T00:42:31.393Z,1009.8
2018-06-16T00:43:33.404Z,1009.8
2018-06-16T00:44:35.394Z,1009.8
2018-06-16T00:45:37.397Z,1009.8
2018-06-16T00:46:39.400Z,1009.8
2018-06-16T00:47:41.391Z,1009.8
2018-06-16T00:48:43.679Z,1009.8
2018-06-16T00:49:45.682Z,1009.8
2018-06-16T00:50:47.683Z,1009.8
2018-06-16T00:51:49.693Z,1009.8
2018-06-16T00:52:52.033Z,1009.8
2018-06-16T00:53:54.408Z,1009.8
2018-06-16T00:54:56.407Z,1009.9
2018-06-16T00:55:58.403Z,1009.8
2018-06-16T00:57:00.685Z,1009.8
2018-06-16T00:58:02.679Z,1009.8
2018-06-16T00:59:04.678Z,1009.8
2018-06-16T01:00:06.684Z,1009.8
2018-06-16T01:01:08.671Z,1009.8
2018-06-16T01:02:10.966Z,1009.8
2018-06-16T01:03:12.962Z,1009.8
2018-06-16T01:04:14.966Z,1009.8
2018-06-16T01:05:16.969Z,1009.8
2018-06-16T01:06:18.977Z,1009.8
2018-06-16T01:07:20.975Z,1009.8
2018-06-16T01:08:22.975Z,1009.8
2018-06-16T01:09:24.976Z,1009.8
2018-06-16T01:10:27.259Z,1009.8
2018-06-16T01:11:29.530Z,1009.7
2018-06-16T01:12:31.531Z,1009.7
2018-06-16T01:13:33.542Z,1009.7
2018-06-16T01:14:35.537Z,1009.7
2018-06-16T01:15:37.835Z,1009.7
2018-06-16T01:16:39.826Z,1009.7
2018-06-16T01:17:41.819Z,1009.7
2018-06-16T01:18:43.822Z,1009.7
2018-06-16T01:19:46.207Z,1009.7
2018-06-16T01:20:48.488Z,1009.7
2018-06-16T01:21:50.763Z,1009.7
2018-06-16T01:22:52.760Z,1009.7
2018-06-16T01:23:55.138Z,1009.7
2018-06-16T01:24:57.148Z,1009.7
2018-06-16T01:25:59.147Z,1009.7
2018-06-16T01:27:01.152Z,1009.7
2018-06-16T01:28:03.143Z,1009.7
2018-06-16T01:29:05.146Z,1009.7
2018-06-16T01:30:07.149Z,1009.7
2018-06-16T01:31:09.145Z,1009.6
2018-06-16T01:32:11.147Z,1009.6
2018-06-16T01:33:13.143Z,1009.6
2018-06-16T01:34:15.146Z,1009.6
2018-06-16T01:35:17.140Z,1009.5
2018-06-16T01:36:19.128Z,1009.6
2018-06-16T01:37:21.136Z,1009.5
2018-06-16T01:38:23.407Z,1009.5
2018-06-16T01:39:25.409Z,1009.5
2018-06-16T01:40:27.695Z,1009.5
2018-06-16T01:41:29.978Z,1009.5
2018-06-16T01:42:32.360Z,1009.5
2018-06-16T01:43:34.363Z,1009.5
2018-06-16T01:44:36.370Z,1009.5
2018-06-16T01:45:38.370Z,1009.5
2018-06-16T01:46:40.365Z,1009.4
2018-06-16T01:47:42.365Z,1009.4
2018-06-16T01:48:44.366Z,1009.4
2018-06-16T01:49:46.369Z,1009.4
2018-06-16T01:50:48.640Z,1009.4
2018-06-16T01:51:50.666Z,1009.4
2018-06-16T01:52:52.944Z,1009.4
2018-06-16T01:53:54.934Z,1009.5
2018-06-16T01:54:56.939Z,1009.5
2018-06-16T01:55:59.321Z,1009.5
2018-06-16T01:57:01.324Z,1009.4
2018-06-16T01:58:03.602Z,1009.4
2018-06-16T01:59:05.592Z,1009.5
2018-06-16T02:00:07.599Z,1009.4
2018-06-16T02:01:09.588Z,1009.4
2018-06-16T02:02:11.892Z,1009.4
2018-06-16T02:03:13.896Z,1009.4
2018-06-16T02:04:15.892Z,1009.5
2018-06-16T02:05:18.271Z,1009.4
2018-06-16T02:06:20.264Z,1009.4
2018-06-16T02:07:22.270Z,1009.4
2018-06-16T02:08:24.261Z,1009.4
2018-06-16T02:09:26.256Z,1009.5
2018-06-16T02:10:28.552Z,1009.4
2018-06-16T02:11:30.840Z,1009.4
2018-06-16T02:12:33.119Z,1009.4
2018-06-16T02:13:35.500Z,1009.4
2018-06-16T02:14:37.505Z,1009.4
2018-06-16T02:15:39.788Z,1009.4
2018-06-16T02:16:42.169Z,1009.4
2018-06-16T02:17:44.170Z,1009.4
2018-06-16T02:18:46.174Z,1009.4
2018-06-16T02:19:48.548Z,1009.4
2018-06-16T02:20:50.551Z,1009.4
2018-06-16T02:21:52.557Z,1009.4
2018-06-16T02:22:54.560Z,1009.4
2018-06-16T02:23:56.546Z,1009.4
2018-06-16T02:24:58.536Z,1009.3
2018-06-16T02:26:00.821Z,1009.4
2018-06-16T02:27:02.822Z,1009.4
2018-06-16T02:28:05.108Z,1009.4
2018-06-16T02:29:07.098Z,1009.4
2018-06-16T02:30:09.089Z,1009.4
2018-06-16T02:31:11.090Z,1009.4
2018-06-16T02:32:13.384Z,1009.4
2018-06-16T02:33:15.380Z,1009.4
2018-06-16T02:34:18.044Z,1009.4
2018-06-16T02:35:20.049Z,1009.4
2018-06-16T02:36:22.611Z,1009.4
2018-06-16T02:37:25.278Z,1009.4
2018-06-16T02:38:27.275Z,1009.4
2018-06-16T02:39:29.295Z,1009.4
2018-06-16T02:40:31.292Z,1009.5
2018-06-16T02:41:33.973Z,1009.5
2018-06-16T02:42:35.982Z,1009.4
2018-06-16T02:43:37.980Z,1009.5
2018-06-16T02:44:39.988Z,1009.5
2018-06-16T02:45:42.280Z,1009.5
2018-06-16T02:46:44.577Z,1009.4
2018-06-16T02:47:46.861Z,1009.5
2018-06-16T02:48:49.160Z,1009.5
2018-06-16T02:49:52.287Z,1009.5
2018-06-16T02:50:54.297Z,1009.4
2018-06-16T02:51:56.683Z,1009.5
2018-06-16T02:52:58.994Z,1009.5
2018-06-16T02:54:00.993Z,1009.5
2018-06-16T02:55:02.996Z,1009.4
2018-06-16T02:56:05.004Z,1009.5
2018-06-16T02:57:07.276Z,1009.5
2018-06-16T02:58:09.847Z,1009.5
2018-06-16T02:59:12.129Z,1009.4
2018-06-16T03:00:14.117Z,1009.4
2018-06-16T03:01:16.425Z,1009.4
2018-06-16T03:02:18.418Z,1009.4
2018-06-16T03:03:20.489Z,1009.4
2018-06-16T03:04:22.410Z,1009.4
2018-06-16T03:05:24.402Z,1009.4
2018-06-16T03:06:26.698Z,1009.4
2018-06-16T03:07:28.700Z,1009.4
2018-06-16T03:08:30.980Z,1009.4
2018-06-16T03:09:32.979Z,1009.4
2018-06-16T03:10:34.981Z,1009.4
2018-06-16T03:11:37.640Z,1009.3
2018-06-16T03:12:40.232Z,1009.4
2018-06-16T03:13:42.234Z,1009.4
2018-06-16T03:14:45.177Z,1009.4
2018-06-16T03:15:47.183Z,1009.5
2018-06-16T03:16:49.468Z,1009.4
2018-06-16T03:17:51.850Z,1009.4
2018-06-16T03:18:53.851Z,1009.4
2018-06-16T03:19:55.846Z,1009.3
2018-06-16T03:20:57.850Z,1009.4
2018-06-16T03:21:59.832Z,1009.3
2018-06-16T03:23:02.216Z,1009.3
2018-06-16T03:24:04.224Z,1009.4
2018-06-16T03:25:06.210Z,1009.3
2018-06-16T03:26:08.598Z,1009.4
2018-06-16T03:27:10.600Z,1009.3
2018-06-16T03:28:12.885Z,1009.3
2018-06-16T03:29:15.161Z,1009.3
2018-06-16T03:30:17.542Z,1009.3
2018-06-16T03:31:20.217Z,1009.3
2018-06-16T03:32:22.216Z,1009.3
2018-06-16T03:33:24.481Z,1009.3
2018-06-16T03:34:26.488Z,1009.3
2018-06-16T03:35:28.483Z,1009.3
2018-06-16T03:36:30.762Z,1009.3
2018-06-16T03:37:33.047Z,1009.3
2018-06-16T03:38:35.051Z,1009.3
2018-06-16T03:39:37.054Z,1009.3
2018-06-16T03:40:39.039Z,1009.3
2018-06-16T03:41:41.036Z,1009.3
2018-06-16T03:42:43.044Z,1009.3
2018-06-16T03:43:45.043Z,1009.2
2018-06-16T03:44:47.036Z,1009.3
2018-06-16T03:45:49.043Z,1009.3
2018-06-16T03:46:51.027Z,1009.2
2018-06-16T03:47:53.040Z,1009.3
2018-06-16T03:48:55.331Z,1009.3
2018-06-16T03:49:57.325Z,1009.3
2018-06-16T03:50:59.326Z,1009.3
2018-06-16T03:52:01.715Z,1009.3
2018-06-16T03:53:04.011Z,1009.3
2018-06-16T03:54:06.385Z,1009.3
2018-06-16T03:55:08.380Z,1009.2
2018-06-16T03:56:10.389Z,1009.3
2018-06-16T03:57:13.047Z,1009.3
2018-06-16T03:58:15.049Z,1009.2
2018-06-16T03:59:17.052Z,1009.2
2018-06-16T04:00:19.050Z,1009.2
2018-06-16T04:01:21.049Z,1009.2
2018-06-16T04:02:23.035Z,1009.2
2018-06-16T04:03:25.037Z,1009.2
2018-06-16T04:04:27.038Z,1009.2
2018-06-16T04:05:29.421Z,1009.2
2018-06-16T04:06:31.427Z,1009.2
2018-06-16T04:07:33.434Z,1009.2
2018-06-16T04:08:35.421Z,1009.2
2018-06-16T04:09:37.426Z,1009.2
2018-06-16T04:10:39.418Z,1009.2
2018-06-16T04:11:42.084Z,1009.2
2018-06-16T04:12:44.073Z,1009.2
2018-06-16T04:13:46.071Z,1009.2
2018-06-16T04:14:48.357Z,1009.2
2018-06-16T04:15:50.346Z,1009.1
2018-06-16T04:16:52.350Z,1009.1
2018-06-16T04:17:54.351Z,1009.1
2018-06-16T04:18:56.626Z,1009.1
2018-06-16T04:19:59.296Z,1009.1
2018-06-16T04:21:01.291Z,1009.1
2018-06-16T04:22:03.308Z,1009.1
2018-06-16T04:23:05.297Z,1009.1
2018-06-16T04:24:07.405Z,1009.1
2018-06-16T04:25:09.770Z,1009.1
2018-06-16T04:26:11.758Z,1009.1
2018-06-16T04:27:14.041Z,1009.1
2018-06-16T04:28:16.035Z,1009.1
2018-06-16T04:29:18.308Z,1009.1
2018-06-16T04:30:20.323Z,1009.1
2018-06-16T04:31:22.311Z,1009.1
2018-06-16T04:32:24.314Z,1009.1
2018-06-16T04:33:26.306Z,1009.1
2018-06-16T04:34:28.301Z,1009.1
2018-06-16T04:35:30.296Z,1009.1
2018-06-16T04:36:32.300Z,1009.1
2018-06-16T04:37:34.859Z,1009
2018-06-16T04:38:36.865Z,1009.1
2018-06-16T04:39:38.849Z,1009
2018-06-16T04:40:40.854Z,1009
2018-06-16T04:41:42.854Z,1009
2018-06-16T04:42:44.855Z,1009
2018-06-16T04:43:46.844Z,1009
2018-06-16T04:44:48.852Z,1009.1
2018-06-16T04:45:50.881Z,1009
2018-06-16T04:46:52.873Z,1009.1
2018-06-16T04:47:54.843Z,1009
2018-06-16T04:48:56.840Z,1009
2018-06-16T04:49:58.839Z,1009
2018-06-16T04:51:00.836Z,1009.1
2018-06-16T04:52:03.127Z,1009
2018-06-16T04:53:05.516Z,1009
2018-06-16T04:54:07.499Z,1009
2018-06-16T04:55:09.504Z,1009.1
2018-06-16T04:56:11.509Z,1009.1
2018-06-16T04:57:13.780Z,1009
2018-06-16T04:58:15.782Z,1009
2018-06-16T04:59:17.775Z,1009.1
2018-06-16T05:00:19.777Z,1009.1
2018-06-16T05:01:21.780Z,1009.1
2018-06-16T05:02:24.065Z,1009.1
2018-06-16T05:03:26.323Z,1009
2018-06-16T05:04:28.324Z,1009.1
2018-06-16T05:05:30.610Z,1009
2018-06-16T05:06:32.991Z,1009.1
2018-06-16T05:07:34.997Z,1009
2018-06-16T05:08:37.031Z,1009.1
2018-06-16T05:09:39.012Z,1009.1
2018-06-16T05:10:41.286Z,1009
2018-06-16T05:11:43.283Z,1009
2018-06-16T05:12:45.296Z,1009
2018-06-16T05:13:47.297Z,1009
2018-06-16T05:14:49.290Z,1009
2018-06-16T05:15:51.292Z,1009
2018-06-16T05:16:53.304Z,1009
2018-06-16T05:17:55.279Z,1009
2018-06-16T05:18:57.664Z,1009
2018-06-16T05:19:59.680Z,1009
2018-06-16T05:21:01.675Z,1009
2018-06-16T05:22:03.673Z,1009
2018-06-16T05:23:05.954Z,1009
2018-06-16T05:24:08.288Z,1009
2018-06-16T05:25:10.262Z,1009
2018-06-16T05:26:12.254Z,1009
2018-06-16T05:27:14.648Z,1009
2018-06-16T05:28:16.644Z,1009
2018-06-16T05:29:19.311Z,1009
2018-06-16T05:30:21.324Z,1008.9
2018-06-16T05:31:23.313Z,1008.9
2018-06-16T05:32:25.320Z,1008.9
2018-06-16T05:33:27.331Z,1008.9
2018-06-16T05:34:29.319Z,1008.9
2018-06-16T05:35:31.606Z,1008.9
2018-06-16T05:36:33.994Z,1008.9
2018-06-16T05:37:36.272Z,1008.9
2018-06-16T05:38:38.274Z,1008.9
2018-06-16T05:39:40.275Z,1008.9
2018-06-16T05:40:42.280Z,1009
2018-06-16T05:41:44.275Z,1008.9
2018-06-16T05:42:46.281Z,1008.9
2018-06-16T05:43:48.274Z,1008.9
2018-06-16T05:44:50.268Z,1008.9
2018-06-16T05:45:52.565Z,1008.9
2018-06-16T05:46:54.558Z,1008.9
2018-06-16T05:47:56.558Z,1008.9
2018-06-16T05:48:58.566Z,1008.9
2018-06-16T05:50:00.563Z,1008.9
2018-06-16T05:51:02.564Z,1008.9
2018-06-16T05:52:04.560Z,1008.8
2018-06-16T05:53:06.574Z,1008.8
2018-06-16T05:54:08.575Z,1008.8
2018-06-16T05:55:10.568Z,1008.8
2018-06-16T05:56:12.576Z,1008.8
2018-06-16T05:57:14.578Z,1008.8
2018-06-16T05:58:16.577Z,1008.8
2018-06-16T05:59:18.571Z,1008.8
2018-06-16T06:00:20.575Z,1008.8
2018-06-16T06:01:22.573Z,1008.8
2018-06-16T06:02:24.569Z,1008.8
2018-06-16T06:03:26.568Z,1008.8
2018-06-16T06:04:28.574Z,1008.8
2018-06-16T06:05:30.577Z,1008.8
2018-06-16T06:06:32.581Z,1008.8
2018-06-16T06:07:34.591Z,1008.7
2018-06-16T06:08:36.600Z,1008.8
2018-06-16T06:09:38.599Z,1008.8
2018-06-16T06:10:40.613Z,1008.8
2018-06-16T06:11:42.616Z,1008.8
2018-06-16T06:12:44.899Z,1008.8
2018-06-16T06:13:46.908Z,1008.7
2018-06-16T06:14:48.904Z,1008.8
2018-06-16T06:15:50.958Z,1008.8
2018-06-16T06:16:53.301Z,1008.8
2018-06-16T06:17:55.301Z,1008.8
2018-06-16T06:18:57.597Z,1008.8
2018-06-16T06:19:59.986Z,1008.8
2018-06-16T06:21:01.999Z,1008.8
2018-06-16T06:22:03.999Z,1008.8
2018-06-16T06:23:06.001Z,1008.8
2018-06-16T06:24:08.000Z,1008.8
2018-06-16T06:25:10.030Z,1008.8
2018-06-16T06:26:12.704Z,1008.8
2018-06-16T06:27:14.711Z,1008.7
2018-06-16T06:28:16.713Z,1008.8
2018-06-16T06:29:19.380Z,1008.8
2018-06-16T06:30:21.661Z,1008.8
2018-06-16T06:31:23.660Z,1008.7
2018-06-16T06:32:26.049Z,1008.7
2018-06-16T06:33:28.065Z,1008.8
2018-06-16T06:34:30.339Z,1008.8
2018-06-16T06:35:32.745Z,1008.8
2018-06-16T06:36:35.022Z,1008.8
2018-06-16T06:37:37.414Z,1008.7
2018-06-16T06:38:39.418Z,1008.7
2018-06-16T06:39:41.416Z,1008.7
2018-06-16T06:40:43.435Z,1008.7
2018-06-16T06:41:45.716Z,1008.7
2018-06-16T06:42:47.712Z,1008.7
2018-06-16T06:43:49.721Z,1008.7
2018-06-16T06:44:51.730Z,1008.7
2018-06-16T06:45:53.737Z,1008.7
2018-06-16T06:46:56.407Z,1008.7
2018-06-16T06:47:58.404Z,1008.7
2018-06-16T06:49:00.423Z,1008.7
2018-06-16T06:50:02.413Z,1008.7
2018-06-16T06:51:04.425Z,1008.6
2018-06-16T06:52:06.737Z,1008.7
2018-06-16T06:53:08.736Z,1008.6
2018-06-16T06:54:10.750Z,1008.7
2018-06-16T06:55:12.753Z,1008.7
2018-06-16T06:56:15.148Z,1008.7
2018-06-16T06:57:17.435Z,1008.7
2018-06-16T06:58:19.433Z,1008.6
2018-06-16T06:59:21.453Z,1008.6
2018-06-16T07:00:23.749Z,1008.6
2018-06-16T07:01:25.753Z,1008.6
2018-06-16T07:02:27.754Z,1008.6
2018-06-16T07:03:30.037Z,1008.6
2018-06-16T07:04:32.055Z,1008.6
2018-06-16T07:05:34.053Z,1008.6
2018-06-16T07:06:36.068Z,1008.6
2018-06-16T07:07:38.079Z,1008.6
2018-06-16T07:08:40.075Z,1008.6
2018-06-16T07:09:42.088Z,1008.7
2018-06-16T07:10:44.261Z,1008.7
2018-06-16T07:11:46.105Z,1008.6
2018-06-16T07:12:48.211Z,1008.6
2018-06-16T07:13:50.620Z,1008.6
2018-06-16T07:14:53.014Z,1008.6
2018-06-16T07:15:55.021Z,1008.6
2018-06-16T07:16:57.026Z,1008.6
2018-06-16T07:17:59.035Z,1008.6
2018-06-16T07:19:01.046Z,1008.6
2018-06-16T07:20:03.060Z,1008.6
2018-06-16T07:21:05.068Z,1008.6
2018-06-16T07:22:07.080Z,1008.6
2018-06-16T07:23:09.081Z,1008.6
2018-06-16T07:24:11.092Z,1008.6
2018-06-16T07:25:13.484Z,1008.6
2018-06-16T07:26:15.503Z,1008.6
2018-06-16T07:27:17.506Z,1008.6
2018-06-16T07:28:20.173Z,1008.6
2018-06-16T07:29:22.218Z,1008.7
2018-06-16T07:30:24.934Z,1008.6
2018-06-16T07:31:26.954Z,1008.7
2018-06-16T07:32:28.957Z,1008.7
2018-06-16T07:33:30.971Z,1008.7
2018-06-16T07:34:32.983Z,1008.7
2018-06-16T07:35:35.277Z,1008.7
2018-06-16T07:36:37.290Z,1008.6
2018-06-16T07:37:39.288Z,1008.6
2018-06-16T07:38:41.293Z,1008.6
2018-06-16T07:39:43.298Z,1008.6
2018-06-16T07:40:45.574Z,1008.6
2018-06-16T07:41:47.594Z,1008.6
2018-06-16T07:42:49.595Z,1008.6
2018-06-16T07:43:51.598Z,1008.6
2018-06-16T07:44:53.888Z,1008.7
2018-06-16T07:45:55.895Z,1008.6
2018-06-16T07:46:57.903Z,1008.6
2018-06-16T07:47:59.918Z,1008.6
2018-06-16T07:49:02.200Z,1008.6
2018-06-16T07:50:04.209Z,1008.6
2018-06-16T07:51:06.219Z,1008.6
2018-06-16T07:52:08.511Z,1008.5
2018-06-16T07:53:10.792Z,1008.6
2018-06-16T07:54:13.479Z,1008.6
2018-06-16T07:55:15.487Z,1008.6
2018-06-16T07:56:17.493Z,1008.6
2018-06-16T07:57:19.503Z,1008.5
2018-06-16T07:58:21.523Z,1008.5
2018-06-16T07:59:23.813Z,1008.5
2018-06-16T08:00:25.825Z,1008.5
2018-06-16T08:01:27.832Z,1008.5
2018-06-16T08:02:29.843Z,1008.5
2018-06-16T08:03:32.227Z,1008.5
2018-06-16T08:04:34.239Z,1008.5
2018-06-16T08:05:36.523Z,1008.5
2018-06-16T08:06:38.915Z,1008.5
2018-06-16T08:07:41.255Z,1008.5
2018-06-16T08:08:43.262Z,1008.5
2018-06-16T08:09:45.271Z,1008.5
2018-06-16T08:10:47.283Z,1008.5
2018-06-16T08:11:49.284Z,1008.5
2018-06-16T08:12:51.315Z,1008.5
2018-06-16T08:13:53.298Z,1008.5
2018-06-16T08:14:55.705Z,1008.5
2018-06-16T08:15:57.719Z,1008.5
2018-06-16T08:16:59.716Z,1008.5
2018-06-16T08:18:02.081Z,1008.5
2018-06-16T08:19:04.057Z,1008.5
2018-06-16T08:20:06.635Z,1008.5
2018-06-16T08:21:08.645Z,1008.5
2018-06-16T08:22:10.654Z,1008.5
2018-06-16T08:23:12.670Z,1008.5
2018-06-16T08:24:15.050Z,1008.4
2018-06-16T08:25:17.067Z,1008.4
2018-06-16T08:26:19.197Z,1008.5
2018-06-16T08:27:22.041Z,1008.4
2018-06-16T08:28:24.327Z,1008.4
2018-06-16T08:29:26.351Z,1008.4
2018-06-16T08:30:28.353Z,1008.4
2018-06-16T08:31:30.374Z,1008.4
2018-06-16T08:32:32.971Z,1008.4
2018-06-16T08:33:34.979Z,1008.4
2018-06-16T08:34:36.997Z,1008.4
2018-06-16T08:35:39.388Z,1008.4
2018-06-16T08:36:41.769Z,1008.4
2018-06-16T08:37:43.777Z,1008.4
2018-06-16T08:38:45.776Z,1008.4
2018-06-16T08:39:47.791Z,1008.3
2018-06-16T08:40:49.800Z,1008.4
2018-06-16T08:41:52.088Z,1008.4
2018-06-16T08:42:54.097Z,1008.3
2018-06-16T08:43:56.395Z,1008.3
2018-06-16T08:44:58.402Z,1008.3
2018-06-16T08:46:00.421Z,1008.4
2018-06-16T08:47:02.420Z,1008.3
2018-06-16T08:48:04.432Z,1008.3
2018-06-16T08:49:06.432Z,1008.3
2018-06-16T08:50:08.439Z,1008.3
2018-06-16T08:51:10.450Z,1008.3
2018-06-16T08:52:12.456Z,1008.3
2018-06-16T08:53:14.468Z,1008.3
2018-06-16T08:54:16.750Z,1008.3
2018-06-16T08:55:18.779Z,1008.3
2018-06-16T08:56:20.776Z,1008.3
2018-06-16T08:57:22.786Z,1008.3
2018-06-16T08:58:25.071Z,1008.3
2018-06-16T08:59:27.084Z,1008.3
2018-06-16T09:00:29.763Z,1008.3
2018-06-16T09:01:31.764Z,1008.3
2018-06-16T09:02:34.172Z,1008.3
2018-06-16T09:03:36.192Z,1008.2
2018-06-16T09:04:38.190Z,1008.2
2018-06-16T09:05:40.206Z,1008.3
2018-06-16T09:06:42.216Z,1008.2
2018-06-16T09:07:44.226Z,1008.2
2018-06-16T09:08:46.228Z,1008.2
2018-06-16T09:09:48.543Z,1008.2
2018-06-16T09:10:50.552Z,1008.2
2018-06-16T09:11:52.666Z,1008.3
2018-06-16T09:12:55.636Z,1008.2
2018-06-16T09:13:57.644Z,1008.2
2018-06-16T09:14:59.652Z,1008.2
2018-06-16T09:16:01.665Z,1008.2
2018-06-16T09:17:03.677Z,1008.2
2018-06-16T09:18:05.990Z,1008.2
2018-06-16T09:19:07.997Z,1008.2
2018-06-16T09:20:10.296Z,1008.2
2018-06-16T09:21:12.311Z,1008.2
2018-06-16T09:22:14.321Z,1008.2
2018-06-16T09:23:16.332Z,1008.2
2018-06-16T09:24:18.344Z,1008.2
2018-06-16T09:25:20.354Z,1008.3
2018-06-16T09:26:22.368Z,1008.2
2018-06-16T09:27:24.377Z,1008.2
2018-06-16T09:28:26.388Z,1008.2
2018-06-16T09:29:28.401Z,1008.2
2018-06-16T09:30:30.418Z,1008.3
2018-06-16T09:31:32.709Z,1008.3
2018-06-16T09:32:34.722Z,1008.3
2018-06-16T09:33:36.998Z,1008.3
2018-06-16T09:34:39.023Z,1008.3
2018-06-16T09:35:41.018Z,1008.3
2018-06-16T09:36:43.034Z,1008.3
2018-06-16T09:37:45.429Z,1008.2
2018-06-16T09:38:47.432Z,1008.2
2018-06-16T09:39:49.443Z,1008.2
2018-06-16T09:40:51.451Z,1008.2
2018-06-16T09:41:53.743Z,1008.2
2018-06-16T09:42:55.763Z,1008.3
2018-06-16T09:43:57.759Z,1008.2
2018-06-16T09:44:59.781Z,1008.3
2018-06-16T09:46:01.789Z,1008.3
2018-06-16T09:47:03.802Z,1008.3
2018-06-16T09:48:05.854Z,1008.3
2018-06-16T09:49:08.114Z,1008.3
2018-06-16T09:50:10.122Z,1008.2
2018-06-16T09:51:12.539Z,1008.2
2018-06-16T09:52:14.538Z,1008.3
2018-06-16T09:53:16.560Z,1008.3
2018-06-16T09:54:18.577Z,1008.2
2018-06-16T09:55:20.887Z,1008.2
2018-06-16T09:56:22.899Z,1008.2
2018-06-16T09:57:24.911Z,1008.2
2018-06-16T09:58:26.921Z,1008.2
2018-06-16T09:59:29.317Z,1008.2
2018-06-16T10:00:31.324Z,1008.2
2018-06-16T10:01:33.344Z,1008.1
2018-06-16T10:02:35.632Z,1008.1
2018-06-16T10:03:37.645Z,1008.1
2018-06-16T10:04:39.654Z,1008.1
2018-06-16T10:05:41.948Z,1008.2
2018-06-16T10:06:44.260Z,1008.1
2018-06-16T10:07:46.275Z,1008.1
2018-06-16T10:08:48.282Z,1008.1
2018-06-16T10:09:50.294Z,1008.1
2018-06-16T10:10:52.324Z,1008.1
2018-06-16T10:11:54.340Z,1008
2018-06-16T10:12:56.471Z,1008.1
2018-06-16T10:13:58.750Z,1008
2018-06-16T10:15:00.967Z,1008
2018-06-16T10:16:03.713Z,1008
2018-06-16T10:17:05.664Z,1008
2018-06-16T10:18:07.684Z,1008
2018-06-16T10:19:10.030Z,1008
2018-06-16T10:20:12.049Z,1007.9
2018-06-16T10:21:14.425Z,1008
2018-06-16T10:22:16.373Z,1008
2018-06-16T10:23:18.389Z,1008
2018-06-16T10:24:20.400Z,1008
2018-06-16T10:25:22.422Z,1008
2018-06-16T10:26:24.440Z,1007.9
2018-06-16T10:27:26.445Z,1007.9
2018-06-16T10:28:28.459Z,1008
2018-06-16T10:29:30.488Z,1007.9
2018-06-16T10:30:32.498Z,1007.9
2018-06-16T10:31:34.508Z,1007.9
2018-06-16T10:32:36.531Z,1007.9
2018-06-16T10:33:38.544Z,1008
2018-06-16T10:34:40.548Z,1008
2018-06-16T10:35:42.562Z,1007.9
2018-06-16T10:36:45.248Z,1008
2018-06-16T10:37:47.643Z,1007.9
2018-06-16T10:38:49.652Z,1008
2018-06-16T10:39:51.959Z,1007.9
2018-06-16T10:40:53.969Z,1008
2018-06-16T10:41:56.285Z,1007.9
2018-06-16T10:42:58.298Z,1007.9
2018-06-16T10:44:00.306Z,1007.9
2018-06-16T10:45:02.322Z,1007.8
2018-06-16T10:46:04.334Z,1007.8
2018-06-16T10:47:06.346Z,1007.8
2018-06-16T10:48:08.359Z,1007.8
2018-06-16T10:49:10.377Z,1007.8
2018-06-16T10:50:12.680Z,1007.7
2018-06-16T10:51:14.688Z,1007.7
2018-06-16T10:52:16.709Z,1007.7
2018-06-16T10:53:18.725Z,1007.7
2018-06-16T10:54:20.739Z,1007.8
2018-06-16T10:55:22.760Z,1007.7
2018-06-16T10:56:24.768Z,1007.7
2018-06-16T10:57:26.777Z,1007.7
2018-06-16T10:58:28.799Z,1007.7
2018-06-16T10:59:30.802Z,1007.7
2018-06-16T11:00:32.836Z,1007.7
2018-06-16T11:01:34.841Z,1007.7
2018-06-16T11:02:36.848Z,1007.7
2018-06-16T11:03:39.153Z,1007.7
2018-06-16T11:04:41.448Z,1007.7
2018-06-16T11:05:43.463Z,1007.7
2018-06-16T11:06:45.492Z,1007.7
2018-06-16T11:07:47.494Z,1007.7
2018-06-16T11:08:49.513Z,1007.7
2018-06-16T11:09:51.528Z,1007.7
2018-06-16T11:10:53.545Z,1007.6
2018-06-16T11:11:55.557Z,1007.7
2018-06-16T11:12:57.572Z,1007.6
2018-06-16T11:13:59.588Z,1007.6
2018-06-16T11:15:01.600Z,1007.5
2018-06-16T11:16:03.624Z,1007.6
2018-06-16T11:17:05.989Z,1007.5
2018-06-16T11:18:08.010Z,1007.5
2018-06-16T11:19:10.036Z,1007.5
2018-06-16T11:20:12.033Z,1007.5
2018-06-16T11:21:14.040Z,1007.5
2018-06-16T11:22:16.066Z,1007.5
2018-06-16T11:23:18.072Z,1007.5
2018-06-16T11:24:20.088Z,1007.5
2018-06-16T11:25:22.102Z,1007.5
2018-06-16T11:26:24.125Z,1007.4
2018-06-16T11:27:26.142Z,1007.4
2018-06-16T11:28:28.535Z,1007.4
2018-06-16T11:29:30.561Z,1007.3
2018-06-16T11:30:32.603Z,1007.3
2018-06-16T11:31:34.577Z,1007.4
2018-06-16T11:32:36.598Z,1007.4
2018-06-16T11:33:38.893Z,1007.3
2018-06-16T11:34:41.232Z,1007.4
2018-06-16T11:35:43.529Z,1007.4
2018-06-16T11:36:45.815Z,1007.4
2018-06-16T11:37:48.406Z,1007.3
2018-06-16T11:38:50.412Z,1007.3
2018-06-16T11:39:52.419Z,1007.3
2018-06-16T11:40:54.859Z,1007.2
2018-06-16T11:41:56.847Z,1007.2
2018-06-16T11:42:58.865Z,1007.2
2018-06-16T11:44:00.879Z,1007.3
2018-06-16T11:45:03.194Z,1007.3
2018-06-16T11:46:05.203Z,1007.3
2018-06-16T11:47:07.220Z,1007.2
2018-06-16T11:48:09.239Z,1007.2
2018-06-16T11:49:11.255Z,1007.1
2018-06-16T11:50:13.258Z,1007.2
2018-06-16T11:51:15.273Z,1007.1
2018-06-16T11:52:17.286Z,1007.1
2018-06-16T11:53:19.302Z,1007.1
2018-06-16T11:54:21.317Z,1007.2
2018-06-16T11:55:23.331Z,1007.1
2018-06-16T11:56:25.350Z,1007.1
2018-06-16T11:57:27.369Z,1007.1
2018-06-16T11:58:29.384Z,1007.1
2018-06-16T11:59:31.786Z,1007
2018-06-16T12:00:33.801Z,1006.9
2018-06-16T12:01:35.823Z,1007
2018-06-16T12:02:37.830Z,1006.9
2018-06-16T12:03:39.842Z,1006.9
2018-06-16T12:04:41.870Z,1007
2018-06-16T12:05:44.181Z,1006.9
2018-06-16T12:06:46.200Z,1006.9
2018-06-16T12:07:48.995Z,1006.9
2018-06-16T12:08:51.006Z,1006.9
2018-06-16T12:09:53.032Z,1006.9
2018-06-16T12:10:55.042Z,1006.9
2018-06-16T12:11:57.071Z,1006.8
2018-06-16T12:12:59.086Z,1006.9
2018-06-16T12:14:01.095Z,1006.9
2018-06-16T12:15:03.421Z,1006.9
2018-06-16T12:16:05.996Z,1006.9
2018-06-16T12:17:08.012Z,1006.9
2018-06-16T12:18:10.024Z,1006.8
2018-06-16T12:19:12.050Z,1006.8
2018-06-16T12:20:14.067Z,1006.9
2018-06-16T12:21:16.079Z,1006.8
2018-06-16T12:22:18.371Z,1006.8
2018-06-16T12:23:20.397Z,1006.8
2018-06-16T12:24:22.414Z,1006.8
2018-06-16T12:25:24.427Z,1006.8
2018-06-16T12:26:26.440Z,1006.8
2018-06-16T12:27:28.735Z,1006.7
2018-06-16T12:28:30.739Z,1006.8
2018-06-16T12:29:32.749Z,1006.7
2018-06-16T12:30:34.779Z,1006.8
2018-06-16T12:31:37.075Z,1006.8
2018-06-16T12:32:39.369Z,1006.7
2018-06-16T12:33:41.383Z,1006.7
2018-06-16T12:34:43.690Z,1006.7
2018-06-16T12:35:45.703Z,1006.6
2018-06-16T12:36:47.714Z,1006.7
2018-06-16T12:37:49.723Z,1006.6
2018-06-16T12:38:51.741Z,1006.6
2018-06-16T12:39:53.762Z,1006.6
2018-06-16T12:40:55.770Z,1006.6
2018-06-16T12:41:57.784Z,1006.5
2018-06-16T12:43:00.073Z,1006.5
2018-06-16T12:44:02.478Z,1006.5
2018-06-16T12:45:04.498Z,1006.5
2018-06-16T12:46:06.517Z,1006.5
2018-06-16T12:47:08.541Z,1006.5
2018-06-16T12:48:10.554Z,1006.5
2018-06-16T12:49:13.183Z,1006.5
2018-06-16T12:50:15.197Z,1006.5
2018-06-16T12:51:17.491Z,1006.4
2018-06-16T12:52:19.514Z,1006.4
2018-06-16T12:53:21.526Z,1006.4
2018-06-16T12:54:23.553Z,1006.5
2018-06-16T12:55:25.836Z,1006.4
2018-06-16T12:56:28.173Z,1006.4
2018-06-16T12:57:30.189Z,1006.4
2018-06-16T12:58:32.452Z,1006.4